sensor_id;sensor_type;location;lat;lon;timestamp;P1;durP1;ratioP1;P2;durP2;ratioP2
69280;SDS011;56392;51.082;17.080;2022-10-16T00:00:22;13.98;;;7.28;;
69280;SDS011;56392;51.082;17.080;2022-10-16T00:05:45;11.87;;;6.53;;
69280;SDS011;56392;51.082;17.080;2022-10-16T00:10:49;12.03;;;6.50;;
69280;SDS011;56392;51.082;17.080;2022-10-16T00:15:54;12.50;;;6.50;;
69280;SDS011;56392;51.082;17.080;2022-10-16T00:21:01;14.93;;;6.35;;
69280;SDS011;56392;51.082;17.080;2022-10-16T00:26:08;11.93;;;6.07;;
69280;SDS011;56392;51.082;17.080;2022-10-16T00:31:13;15.38;;;6.80;;
69280;SDS011;56392;51.082;17.080;2022-10-16T00:36:16;14.63;;;6.40;;
69280;SDS011;56392;51.082;17.080;2022-10-16T00:41:23;12.27;;;5.73;;
69280;SDS011;56392;51.082;17.080;2022-10-16T00:46:27;13.30;;;5.95;;
69280;SDS011;56392;51.082;17.080;2022-10-16T00:51:34;9.98;;;4.97;;
69280;SDS011;56392;51.082;17.080;2022-10-16T00:56:40;10.53;;;5.13;;
69280;SDS011;56392;51.082;17.080;2022-10-16T01:01:44;10.10;;;4.83;;
69280;SDS011;56392;51.082;17.080;2022-10-16T01:06:47;8.93;;;4.13;;
69280;SDS011;56392;51.082;17.080;2022-10-16T01:12:01;10.52;;;4.78;;
69280;SDS011;56392;51.082;17.080;2022-10-16T01:17:10;10.03;;;4.27;;
69280;SDS011;56392;51.082;17.080;2022-10-16T01:22:14;9.40;;;4.10;;
69280;SDS011;56392;51.082;17.080;2022-10-16T01:27:20;8.70;;;4.25;;
69280;SDS011;56392;51.082;17.080;2022-10-16T01:32:28;9.47;;;4.67;;
69280;SDS011;56392;51.082;17.080;2022-10-16T01:37:36;9.93;;;4.50;;
69280;SDS011;56392;51.082;17.080;2022-10-16T01:42:44;11.10;;;4.32;;
69280;SDS011;56392;51.082;17.080;2022-10-16T01:47:50;10.17;;;4.87;;
69280;SDS011;56392;51.082;17.080;2022-10-16T01:52:55;10.73;;;4.63;;
69280;SDS011;56392;51.082;17.080;2022-10-16T01:58:01;12.98;;;4.90;;
69280;SDS011;56392;51.082;17.080;2022-10-16T02:03:05;10.38;;;4.80;;
69280;SDS011;56392;51.082;17.080;2022-10-16T02:08:09;11.60;;;5.20;;
69280;SDS011;56392;51.082;17.080;2022-10-16T02:13:15;11.55;;;5.70;;
69280;SDS011;56392;51.082;17.080;2022-10-16T02:18:20;10.93;;;5.20;;
69280;SDS011;56392;51.082;17.080;2022-10-16T02:23:24;11.43;;;5.57;;
69280;SDS011;56392;51.082;17.080;2022-10-16T02:28:34;12.65;;;5.80;;
69280;SDS011;56392;51.082;17.080;2022-10-16T02:33:42;12.60;;;5.70;;
69280;SDS011;56392;51.082;17.080;2022-10-16T02:38:45;13.10;;;5.50;;
69280;SDS011;56392;51.082;17.080;2022-10-16T02:43:49;11.60;;;5.67;;
69280;SDS011;56392;51.082;17.080;2022-10-16T02:48:52;13.07;;;5.72;;
69280;SDS011;56392;51.082;17.080;2022-10-16T02:53:55;10.98;;;5.63;;
69280;SDS011;56392;51.082;17.080;2022-10-16T02:58:59;10.10;;;5.47;;
69280;SDS011;56392;51.082;17.080;2022-10-16T03:04:02;10.13;;;5.25;;
69280;SDS011;56392;51.082;17.080;2022-10-16T03:09:05;13.60;;;5.55;;
69280;SDS011;56392;51.082;17.080;2022-10-16T03:14:09;12.33;;;5.33;;
69280;SDS011;56392;51.082;17.080;2022-10-16T03:19:12;11.43;;;4.95;;
69280;SDS011;56392;51.082;17.080;2022-10-16T03:24:15;12.35;;;5.60;;
69280;SDS011;56392;51.082;17.080;2022-10-16T03:29:19;11.90;;;5.87;;
69280;SDS011;56392;51.082;17.080;2022-10-16T03:34:22;10.43;;;5.23;;
69280;SDS011;56392;51.082;17.080;2022-10-16T03:39:25;12.88;;;5.82;;
69280;SDS011;56392;51.082;17.080;2022-10-16T03:44:29;13.82;;;6.28;;
69280;SDS011;56392;51.082;17.080;2022-10-16T03:49:32;14.27;;;6.33;;
69280;SDS011;56392;51.082;17.080;2022-10-16T03:54:34;11.98;;;6.88;;
69280;SDS011;56392;51.082;17.080;2022-10-16T03:59:38;11.60;;;6.45;;
69280;SDS011;56392;51.082;17.080;2022-10-16T04:04:42;12.10;;;6.20;;
69280;SDS011;56392;51.082;17.080;2022-10-16T04:09:44;12.80;;;5.97;;
69280;SDS011;56392;51.082;17.080;2022-10-16T04:14:48;11.85;;;5.97;;
69280;SDS011;56392;51.082;17.080;2022-10-16T04:19:51;10.73;;;5.33;;
69280;SDS011;56392;51.082;17.080;2022-10-16T04:24:53;10.07;;;5.60;;
69280;SDS011;56392;51.082;17.080;2022-10-16T04:29:57;10.20;;;5.38;;
69280;SDS011;56392;51.082;17.080;2022-10-16T04:35:01;10.57;;;5.65;;
69280;SDS011;56392;51.082;17.080;2022-10-16T04:40:04;11.17;;;5.47;;
69280;SDS011;56392;51.082;17.080;2022-10-16T04:45:09;10.65;;;5.60;;
69280;SDS011;56392;51.082;17.080;2022-10-16T04:50:12;11.63;;;5.95;;
69280;SDS011;56392;51.082;17.080;2022-10-16T04:55:15;12.10;;;6.00;;
69280;SDS011;56392;51.082;17.080;2022-10-16T05:00:19;11.60;;;5.90;;
69280;SDS011;56392;51.082;17.080;2022-10-16T05:05:21;11.45;;;6.13;;
69280;SDS011;56392;51.082;17.080;2022-10-16T05:10:24;11.87;;;5.93;;
69280;SDS011;56392;51.082;17.080;2022-10-16T05:15:28;12.70;;;6.07;;
69280;SDS011;56392;51.082;17.080;2022-10-16T05:20:31;13.55;;;5.93;;
69280;SDS011;56392;51.082;17.080;2022-10-16T05:25:34;12.05;;;6.32;;
69280;SDS011;56392;51.082;17.080;2022-10-16T05:30:38;12.07;;;6.00;;
69280;SDS011;56392;51.082;17.080;2022-10-16T05:35:41;11.98;;;6.30;;
69280;SDS011;56392;51.082;17.080;2022-10-16T05:40:50;13.38;;;6.20;;
69280;SDS011;56392;51.082;17.080;2022-10-16T05:45:55;14.00;;;6.30;;
69280;SDS011;56392;51.082;17.080;2022-10-16T05:50:58;12.50;;;6.25;;
69280;SDS011;56392;51.082;17.080;2022-10-16T05:56:02;11.77;;;6.32;;
69280;SDS011;56392;51.082;17.080;2022-10-16T06:01:07;12.03;;;5.63;;
69280;SDS011;56392;51.082;17.080;2022-10-16T06:06:12;14.70;;;6.77;;
69280;SDS011;56392;51.082;17.080;2022-10-16T06:11:17;14.02;;;6.82;;
69280;SDS011;56392;51.082;17.080;2022-10-16T06:16:23;12.10;;;6.32;;
69280;SDS011;56392;51.082;17.080;2022-10-16T06:21:27;12.13;;;6.37;;
69280;SDS011;56392;51.082;17.080;2022-10-16T06:26:31;12.05;;;6.38;;
69280;SDS011;56392;51.082;17.080;2022-10-16T06:31:35;12.20;;;6.80;;
69280;SDS011;56392;51.082;17.080;2022-10-16T06:36:38;14.27;;;6.90;;
69280;SDS011;56392;51.082;17.080;2022-10-16T06:41:42;11.55;;;6.00;;
69280;SDS011;56392;51.082;17.080;2022-10-16T06:46:46;11.30;;;6.30;;
69280;SDS011;56392;51.082;17.080;2022-10-16T06:51:48;13.07;;;6.60;;
69280;SDS011;56392;51.082;17.080;2022-10-16T06:56:51;12.03;;;6.17;;
69280;SDS011;56392;51.082;17.080;2022-10-16T07:01:57;11.07;;;6.40;;
69280;SDS011;56392;51.082;17.080;2022-10-16T07:07:00;9.82;;;4.78;;
69280;SDS011;56392;51.082;17.080;2022-10-16T07:12:03;10.37;;;4.50;;
69280;SDS011;56392;51.082;17.080;2022-10-16T07:17:07;10.13;;;4.97;;
69280;SDS011;56392;51.082;17.080;2022-10-16T07:22:10;9.20;;;4.70;;
69280;SDS011;56392;51.082;17.080;2022-10-16T07:27:12;9.17;;;4.47;;
69280;SDS011;56392;51.082;17.080;2022-10-16T07:32:19;9.05;;;4.35;;
69280;SDS011;56392;51.082;17.080;2022-10-16T07:37:21;8.52;;;4.30;;
69280;SDS011;56392;51.082;17.080;2022-10-16T07:42:24;8.60;;;4.30;;
69280;SDS011;56392;51.082;17.080;2022-10-16T07:47:28;10.93;;;3.93;;
69280;SDS011;56392;51.082;17.080;2022-10-16T07:52:30;8.98;;;4.00;;
69280;SDS011;56392;51.082;17.080;2022-10-16T07:57:33;8.00;;;3.88;;
69280;SDS011;56392;51.082;17.080;2022-10-16T08:02:38;8.77;;;3.77;;
69280;SDS011;56392;51.082;17.080;2022-10-16T08:07:40;10.85;;;4.05;;
69280;SDS011;56392;51.082;17.080;2022-10-16T08:12:43;7.95;;;3.65;;
69280;SDS011;56392;51.082;17.080;2022-10-16T08:17:54;9.10;;;3.80;;
69280;SDS011;56392;51.082;17.080;2022-10-16T08:22:58;8.73;;;4.05;;
69280;SDS011;56392;51.082;17.080;2022-10-16T08:28:02;7.57;;;3.65;;
69280;SDS011;56392;51.082;17.080;2022-10-16T08:33:07;8.20;;;3.80;;
69280;SDS011;56392;51.082;17.080;2022-10-16T08:38:10;8.07;;;3.77;;
69280;SDS011;56392;51.082;17.080;2022-10-16T08:43:22;9.68;;;4.60;;
69280;SDS011;56392;51.082;17.080;2022-10-16T08:48:43;10.25;;;4.22;;
69280;SDS011;56392;51.082;17.080;2022-10-16T08:53:49;8.23;;;4.33;;
69280;SDS011;56392;51.082;17.080;2022-10-16T08:58:57;8.18;;;3.58;;
69280;SDS011;56392;51.082;17.080;2022-10-16T09:04:07;9.43;;;3.85;;
69280;SDS011;56392;51.082;17.080;2022-10-16T09:09:32;8.97;;;3.67;;
69280;SDS011;56392;51.082;17.080;2022-10-16T09:14:50;9.52;;;3.92;;
69280;SDS011;56392;51.082;17.080;2022-10-16T09:20:07;8.02;;;3.58;;
69280;SDS011;56392;51.082;17.080;2022-10-16T09:25:28;8.37;;;3.23;;
69280;SDS011;56392;51.082;17.080;2022-10-16T09:30:31;8.73;;;3.90;;
69280;SDS011;56392;51.082;17.080;2022-10-16T09:35:36;9.32;;;3.45;;
69280;SDS011;56392;51.082;17.080;2022-10-16T09:40:40;8.82;;;3.30;;
69280;SDS011;56392;51.082;17.080;2022-10-16T09:45:52;7.97;;;3.27;;
69280;SDS011;56392;51.082;17.080;2022-10-16T09:50:58;8.10;;;3.15;;
69280;SDS011;56392;51.082;17.080;2022-10-16T09:56:01;9.82;;;3.33;;
69280;SDS011;56392;51.082;17.080;2022-10-16T10:01:11;6.70;;;3.00;;
69280;SDS011;56392;51.082;17.080;2022-10-16T10:06:18;7.82;;;3.17;;
69280;SDS011;56392;51.082;17.080;2022-10-16T10:11:41;7.32;;;2.90;;
69280;SDS011;56392;51.082;17.080;2022-10-16T10:16:46;6.67;;;2.63;;
69280;SDS011;56392;51.082;17.080;2022-10-16T10:21:51;6.83;;;2.70;;
69280;SDS011;56392;51.082;17.080;2022-10-16T10:26:55;7.50;;;3.05;;
69280;SDS011;56392;51.082;17.080;2022-10-16T10:32:09;5.93;;;2.40;;
69280;SDS011;56392;51.082;17.080;2022-10-16T10:37:24;11.23;;;2.63;;
69280;SDS011;56392;51.082;17.080;2022-10-16T10:42:40;6.90;;;2.60;;
69280;SDS011;56392;51.082;17.080;2022-10-16T10:47:55;6.28;;;2.60;;
69280;SDS011;56392;51.082;17.080;2022-10-16T10:53:09;6.33;;;2.50;;
69280;SDS011;56392;51.082;17.080;2022-10-16T10:58:35;6.07;;;2.40;;
69280;SDS011;56392;51.082;17.080;2022-10-16T11:04:09;6.50;;;2.40;;
69280;SDS011;56392;51.082;17.080;2022-10-16T11:09:30;5.82;;;1.83;;
69280;SDS011;56392;51.082;17.080;2022-10-16T11:14:38;5.50;;;2.17;;
69280;SDS011;56392;51.082;17.080;2022-10-16T11:19:45;6.80;;;2.28;;
69280;SDS011;56392;51.082;17.080;2022-10-16T11:24:54;6.28;;;2.03;;
69280;SDS011;56392;51.082;17.080;2022-10-16T11:30:05;5.63;;;2.10;;
69280;SDS011;56392;51.082;17.080;2022-10-16T11:35:15;5.85;;;2.30;;
69280;SDS011;56392;51.082;17.080;2022-10-16T11:40:25;8.85;;;2.78;;
69280;SDS011;56392;51.082;17.080;2022-10-16T11:45:33;6.47;;;2.93;;
69280;SDS011;56392;51.082;17.080;2022-10-16T11:50:43;8.10;;;3.08;;
69280;SDS011;56392;51.082;17.080;2022-10-16T11:55:52;8.32;;;3.20;;
69280;SDS011;56392;51.082;17.080;2022-10-16T12:00:59;8.35;;;4.32;;
69280;SDS011;56392;51.082;17.080;2022-10-16T12:06:14;11.07;;;4.60;;
69280;SDS011;56392;51.082;17.080;2022-10-16T12:11:33;9.38;;;3.97;;
69280;SDS011;56392;51.082;17.080;2022-10-16T12:16:50;9.07;;;4.45;;
69280;SDS011;56392;51.082;17.080;2022-10-16T12:21:54;9.90;;;5.33;;
69280;SDS011;56392;51.082;17.080;2022-10-16T12:27:00;11.50;;;5.90;;
69280;SDS011;56392;51.082;17.080;2022-10-16T12:32:04;9.38;;;4.20;;
69280;SDS011;56392;51.082;17.080;2022-10-16T12:37:09;8.30;;;3.77;;
69280;SDS011;56392;51.082;17.080;2022-10-16T12:42:23;9.38;;;4.35;;
69280;SDS011;56392;51.082;17.080;2022-10-16T12:47:37;8.70;;;3.83;;
69280;SDS011;56392;51.082;17.080;2022-10-16T12:52:48;7.43;;;3.90;;
69280;SDS011;56392;51.082;17.080;2022-10-16T12:58:05;9.83;;;4.70;;
69280;SDS011;56392;51.082;17.080;2022-10-16T13:09:01;10.25;;;5.32;;
69280;SDS011;56392;51.082;17.080;2022-10-16T13:14:18;11.47;;;5.63;;
69280;SDS011;56392;51.082;17.080;2022-10-16T13:19:32;12.30;;;6.15;;
69280;SDS011;56392;51.082;17.080;2022-10-16T13:24:48;12.18;;;6.75;;
69280;SDS011;56392;51.082;17.080;2022-10-16T13:30:10;10.37;;;6.20;;
69280;SDS011;56392;51.082;17.080;2022-10-16T13:35:20;11.95;;;5.60;;
69280;SDS011;56392;51.082;17.080;2022-10-16T13:40:24;13.25;;;5.82;;
69280;SDS011;56392;51.082;17.080;2022-10-16T13:45:28;11.00;;;6.15;;
69280;SDS011;56392;51.082;17.080;2022-10-16T13:50:31;11.50;;;7.00;;
69280;SDS011;56392;51.082;17.080;2022-10-16T13:55:34;14.73;;;7.00;;
69280;SDS011;56392;51.082;17.080;2022-10-16T14:00:38;11.82;;;5.78;;
69280;SDS011;56392;51.082;17.080;2022-10-16T14:05:42;9.70;;;5.30;;
69280;SDS011;56392;51.082;17.080;2022-10-16T14:10:49;12.82;;;5.70;;
69280;SDS011;56392;51.082;17.080;2022-10-16T14:15:54;15.88;;;8.43;;
69280;SDS011;56392;51.082;17.080;2022-10-16T14:21:03;15.97;;;9.20;;
69280;SDS011;56392;51.082;17.080;2022-10-16T14:26:16;14.50;;;8.20;;
69280;SDS011;56392;51.082;17.080;2022-10-16T14:31:27;13.18;;;7.28;;
69280;SDS011;56392;51.082;17.080;2022-10-16T14:36:31;11.40;;;6.10;;
69280;SDS011;56392;51.082;17.080;2022-10-16T14:41:40;9.00;;;4.43;;
69280;SDS011;56392;51.082;17.080;2022-10-16T14:46:48;12.63;;;6.00;;
69280;SDS011;56392;51.082;17.080;2022-10-16T14:51:51;10.80;;;4.85;;
69280;SDS011;56392;51.082;17.080;2022-10-16T14:56:54;11.00;;;5.23;;
69280;SDS011;56392;51.082;17.080;2022-10-16T15:02:01;11.38;;;5.40;;
69280;SDS011;56392;51.082;17.080;2022-10-16T15:07:19;13.00;;;7.38;;
69280;SDS011;56392;51.082;17.080;2022-10-16T15:12:21;15.87;;;9.87;;
69280;SDS011;56392;51.082;17.080;2022-10-16T15:17:25;17.20;;;9.60;;
69280;SDS011;56392;51.082;17.080;2022-10-16T15:22:28;16.35;;;9.40;;
69280;SDS011;56392;51.082;17.080;2022-10-16T15:27:31;18.40;;;10.70;;
69280;SDS011;56392;51.082;17.080;2022-10-16T15:32:42;14.37;;;8.07;;
69280;SDS011;56392;51.082;17.080;2022-10-16T15:37:46;12.95;;;7.28;;
69280;SDS011;56392;51.082;17.080;2022-10-16T15:42:49;11.27;;;6.72;;
69280;SDS011;56392;51.082;17.080;2022-10-16T15:47:53;13.87;;;7.37;;
69280;SDS011;56392;51.082;17.080;2022-10-16T15:52:55;11.27;;;7.10;;
69280;SDS011;56392;51.082;17.080;2022-10-16T15:57:58;12.23;;;7.30;;
69280;SDS011;56392;51.082;17.080;2022-10-16T16:03:02;15.70;;;8.27;;
69280;SDS011;56392;51.082;17.080;2022-10-16T16:08:05;17.73;;;9.00;;
69280;SDS011;56392;51.082;17.080;2022-10-16T16:13:08;20.42;;;12.18;;
69280;SDS011;56392;51.082;17.080;2022-10-16T16:18:12;17.83;;;10.07;;
69280;SDS011;56392;51.082;17.080;2022-10-16T16:23:15;19.73;;;10.40;;
69280;SDS011;56392;51.082;17.080;2022-10-16T16:28:18;16.70;;;9.75;;
69280;SDS011;56392;51.082;17.080;2022-10-16T16:33:22;17.10;;;9.55;;
69280;SDS011;56392;51.082;17.080;2022-10-16T16:38:25;17.00;;;9.83;;
69280;SDS011;56392;51.082;17.080;2022-10-16T16:43:28;18.17;;;9.85;;
69280;SDS011;56392;51.082;17.080;2022-10-16T16:48:32;16.27;;;10.23;;
69280;SDS011;56392;51.082;17.080;2022-10-16T16:53:35;17.47;;;10.17;;
69280;SDS011;56392;51.082;17.080;2022-10-16T16:58:38;17.65;;;11.13;;
69280;SDS011;56392;51.082;17.080;2022-10-16T17:03:43;19.90;;;11.65;;
69280;SDS011;56392;51.082;17.080;2022-10-16T17:08:46;21.33;;;11.20;;
69280;SDS011;56392;51.082;17.080;2022-10-16T17:13:50;21.83;;;11.83;;
69280;SDS011;56392;51.082;17.080;2022-10-16T17:18:58;18.58;;;11.80;;
69280;SDS011;56392;51.082;17.080;2022-10-16T17:24:01;21.00;;;11.98;;
69280;SDS011;56392;51.082;17.080;2022-10-16T17:29:04;20.33;;;12.07;;
69280;SDS011;56392;51.082;17.080;2022-10-16T17:34:09;19.27;;;11.93;;
69280;SDS011;56392;51.082;17.080;2022-10-16T17:39:13;21.60;;;12.18;;
69280;SDS011;56392;51.082;17.080;2022-10-16T17:44:18;22.87;;;14.20;;
69280;SDS011;56392;51.082;17.080;2022-10-16T17:49:22;22.25;;;12.98;;
69280;SDS011;56392;51.082;17.080;2022-10-16T17:54:25;24.58;;;13.27;;
69280;SDS011;56392;51.082;17.080;2022-10-16T17:59:27;23.07;;;12.43;;
69280;SDS011;56392;51.082;17.080;2022-10-16T18:04:31;22.20;;;14.17;;
69280;SDS011;56392;51.082;17.080;2022-10-16T18:09:34;22.77;;;14.20;;
69280;SDS011;56392;51.082;17.080;2022-10-16T18:14:37;24.52;;;14.40;;
69280;SDS011;56392;51.082;17.080;2022-10-16T18:19:41;22.67;;;13.60;;
69280;SDS011;56392;51.082;17.080;2022-10-16T18:24:44;26.35;;;15.02;;
69280;SDS011;56392;51.082;17.080;2022-10-16T18:29:47;24.40;;;14.45;;
69280;SDS011;56392;51.082;17.080;2022-10-16T18:34:52;23.07;;;14.43;;
69280;SDS011;56392;51.082;17.080;2022-10-16T18:39:55;22.20;;;13.98;;
69280;SDS011;56392;51.082;17.080;2022-10-16T18:44:58;24.10;;;14.52;;
69280;SDS011;56392;51.082;17.080;2022-10-16T18:50:03;22.07;;;14.67;;
69280;SDS011;56392;51.082;17.080;2022-10-16T18:55:08;26.63;;;15.17;;
69280;SDS011;56392;51.082;17.080;2022-10-16T19:00:10;25.95;;;15.82;;
69280;SDS011;56392;51.082;17.080;2022-10-16T19:05:15;24.52;;;15.32;;
69280;SDS011;56392;51.082;17.080;2022-10-16T19:10:18;25.87;;;14.83;;
69280;SDS011;56392;51.082;17.080;2022-10-16T19:15:24;23.70;;;14.93;;
69280;SDS011;56392;51.082;17.080;2022-10-16T19:20:28;25.73;;;15.00;;
69280;SDS011;56392;51.082;17.080;2022-10-16T19:25:35;26.87;;;15.43;;
69280;SDS011;56392;51.082;17.080;2022-10-16T19:30:39;26.08;;;16.42;;
69280;SDS011;56392;51.082;17.080;2022-10-16T19:35:44;27.58;;;16.88;;
69280;SDS011;56392;51.082;17.080;2022-10-16T19:40:46;27.40;;;15.80;;
69280;SDS011;56392;51.082;17.080;2022-10-16T19:45:49;27.07;;;16.80;;
69280;SDS011;56392;51.082;17.080;2022-10-16T19:50:53;27.73;;;16.98;;
69280;SDS011;56392;51.082;17.080;2022-10-16T19:55:56;27.50;;;16.58;;
69280;SDS011;56392;51.082;17.080;2022-10-16T20:01:00;26.67;;;16.73;;
69280;SDS011;56392;51.082;17.080;2022-10-16T20:06:05;29.30;;;18.10;;
69280;SDS011;56392;51.082;17.080;2022-10-16T20:11:10;36.35;;;20.70;;
69280;SDS011;56392;51.082;17.080;2022-10-16T20:16:14;36.03;;;21.50;;
69280;SDS011;56392;51.082;17.080;2022-10-16T20:21:22;35.17;;;21.15;;
69280;SDS011;56392;51.082;17.080;2022-10-16T20:26:26;32.53;;;20.60;;
69280;SDS011;56392;51.082;17.080;2022-10-16T20:31:30;31.30;;;18.13;;
69280;SDS011;56392;51.082;17.080;2022-10-16T20:36:35;26.50;;;16.73;;
69280;SDS011;56392;51.082;17.080;2022-10-16T20:41:39;26.17;;;15.90;;
69280;SDS011;56392;51.082;17.080;2022-10-16T20:46:42;30.55;;;17.17;;
69280;SDS011;56392;51.082;17.080;2022-10-16T20:51:46;25.57;;;15.80;;
69280;SDS011;56392;51.082;17.080;2022-10-16T20:56:49;27.58;;;17.25;;
69280;SDS011;56392;51.082;17.080;2022-10-16T21:01:52;29.88;;;17.70;;
69280;SDS011;56392;51.082;17.080;2022-10-16T21:06:57;35.13;;;18.87;;
69280;SDS011;56392;51.082;17.080;2022-10-16T21:11:59;29.08;;;17.70;;
69280;SDS011;56392;51.082;17.080;2022-10-16T21:17:02;28.60;;;18.08;;
69280;SDS011;56392;51.082;17.080;2022-10-16T21:22:06;27.17;;;17.40;;
69280;SDS011;56392;51.082;17.080;2022-10-16T21:27:09;27.00;;;16.23;;
69280;SDS011;56392;51.082;17.080;2022-10-16T21:32:11;30.13;;;17.88;;
69280;SDS011;56392;51.082;17.080;2022-10-16T21:37:15;28.98;;;17.85;;
69280;SDS011;56392;51.082;17.080;2022-10-16T21:42:18;33.17;;;19.20;;
69280;SDS011;56392;51.082;17.080;2022-10-16T21:47:21;30.48;;;18.67;;
69280;SDS011;56392;51.082;17.080;2022-10-16T21:52:25;31.02;;;19.50;;
69280;SDS011;56392;51.082;17.080;2022-10-16T21:57:28;30.40;;;17.87;;
69280;SDS011;56392;51.082;17.080;2022-10-16T22:02:31;26.75;;;16.05;;
69280;SDS011;56392;51.082;17.080;2022-10-16T22:07:35;27.77;;;17.17;;
69280;SDS011;56392;51.082;17.080;2022-10-16T22:12:38;22.60;;;14.10;;
69280;SDS011;56392;51.082;17.080;2022-10-16T22:17:41;23.50;;;13.33;;
69280;SDS011;56392;51.082;17.080;2022-10-16T22:22:45;26.50;;;14.98;;
69280;SDS011;56392;51.082;17.080;2022-10-16T22:27:48;28.95;;;16.17;;
69280;SDS011;56392;51.082;17.080;2022-10-16T22:32:51;28.40;;;16.90;;
69280;SDS011;56392;51.082;17.080;2022-10-16T22:37:55;27.70;;;15.00;;
69280;SDS011;56392;51.082;17.080;2022-10-16T22:42:59;28.00;;;15.90;;
69280;SDS011;56392;51.082;17.080;2022-10-16T22:48:03;28.07;;;17.57;;
69280;SDS011;56392;51.082;17.080;2022-10-16T22:53:08;28.45;;;17.10;;
69280;SDS011;56392;51.082;17.080;2022-10-16T22:58:11;34.63;;;18.90;;
69280;SDS011;56392;51.082;17.080;2022-10-16T23:03:14;30.60;;;18.23;;
69280;SDS011;56392;51.082;17.080;2022-10-16T23:08:19;30.40;;;17.33;;
69280;SDS011;56392;51.082;17.080;2022-10-16T23:13:22;30.08;;;17.40;;
69280;SDS011;56392;51.082;17.080;2022-10-16T23:18:25;27.90;;;17.45;;
69280;SDS011;56392;51.082;17.080;2022-10-16T23:23:29;36.10;;;20.90;;
69280;SDS011;56392;51.082;17.080;2022-10-16T23:28:32;32.45;;;20.10;;
69280;SDS011;56392;51.082;17.080;2022-10-16T23:33:35;32.75;;;19.38;;
69280;SDS011;56392;51.082;17.080;2022-10-16T23:38:40;27.43;;;14.70;;
69280;SDS011;56392;51.082;17.080;2022-10-16T23:43:43;24.60;;;12.82;;
69280;SDS011;56392;51.082;17.080;2022-10-16T23:48:46;22.90;;;12.30;;
69280;SDS011;56392;51.082;17.080;2022-10-16T23:53:50;20.30;;;12.10;;
69280;SDS011;56392;51.082;17.080;2022-10-16T23:58:53;24.67;;;14.27;;
